Time;durP1;ratioP1;P1;durP2;ratioP2;P2;SDS_P1;SDS_P2;PMS_P1;PMS_P2;Temp;Humidity;BMP_temperature;BMP_pressure;BME280_temperature;BME280_humidity;BME280_pressure;Samples;Min_cycle;Max_cycle;Signal;HPM_P1;HPM_P2
2023/04/24 00:00:57;;;;;;;1.27;0.55;;;;;;;;;;5057598;28;20474;-59
2023/04/24 00:03:23;;;;;;;0.77;0.40;;;;;;;;;;5057707;28;20036;-59
2023/04/24 00:05:50;;;;;;;0.95;0.50;;;;;;;;;;5057582;28;20089;-59
2023/04/24 00:08:16;;;;;;;0.90;0.52;;;;;;;;;;5057420;28;20094;-59
2023/04/24 00:10:42;;;;;;;1.05;0.60;;;;;;;;;;5058150;28;20112;-59
2023/04/24 00:13:08;;;;;;;1.10;0.47;;;;;;;;;;5058164;28;20328;-58
2023/04/24 00:15:34;;;;;;;1.45;0.52;;;;;;;;;;5058116;28;20077;-59
2023/04/24 00:18:01;;;;;;;2.90;0.60;;;;;;;;;;5057543;28;20025;-59
2023/04/24 00:20:29;;;;;;;1.48;0.50;;;;;;;;;;5057717;28;20025;-59
2023/04/24 00:22:55;;;;;;;2.35;0.80;;;;;;;;;;5055931;28;20041;-59
2023/04/24 00:25:21;;;;;;;2.28;0.65;;;;;;;;;;5057159;28;20056;-59
2023/04/24 00:27:47;;;;;;;1.27;0.68;;;;;;;;;;5057010;28;20056;-59
2023/04/24 00:30:13;;;;;;;1.50;0.60;;;;;;;;;;5057297;28;20025;-59
2023/04/24 00:32:39;;;;;;;1.42;0.50;;;;;;;;;;5057037;28;20031;-59
2023/04/24 00:35:05;;;;;;;1.73;0.55;;;;;;;;;;5057472;28;20029;-58
2023/04/24 00:37:31;;;;;;;1.15;0.50;;;;;;;;;;5057376;28;20490;-59
2023/04/24 00:39:57;;;;;;;1.48;0.70;;;;;;;;;;5057387;28;20033;-59
2023/04/24 00:42:23;;;;;;;0.80;0.32;;;;;;;;;;5057436;28;20427;-59
2023/04/24 00:44:50;;;;;;;1.10;0.45;;;;;;;;;;5056720;28;20025;-58
2023/04/24 00:47:16;;;;;;;1.25;0.30;;;;;;;;;;5056689;28;20071;-59
2023/04/24 00:49:42;;;;;;;1.90;0.80;;;;;;;;;;5056667;28;20129;-58
2023/04/24 00:52:08;;;;;;;2.67;0.35;;;;;;;;;;5057126;28;20344;-58
2023/04/24 00:54:35;;;;;;;1.90;0.65;;;;;;;;;;5056526;28;20521;-58
2023/04/24 00:57:02;;;;;;;0.45;0.25;;;;;;;;;;5056496;28;20029;-59
2023/04/24 00:59:28;;;;;;;3.13;0.38;;;;;;;;;;5056418;28;20025;-59
2023/04/24 01:01:54;;;;;;;1.75;0.50;;;;;;;;;;5056368;28;20033;-58
2023/04/24 01:04:20;;;;;;;0.95;0.55;;;;;;;;;;5055031;28;20025;-58
2023/04/24 01:06:46;;;;;;;0.40;0.20;;;;;;;;;;5056699;28;20021;-58
2023/04/24 01:09:13;;;;;;;1.67;0.65;;;;;;;;;;5056554;28;20112;-58
2023/04/24 01:11:40;;;;;;;0.93;0.57;;;;;;;;;;5055937;28;20390;-57
2023/04/24 01:14:06;;;;;;;0.93;0.25;;;;;;;;;;5056277;28;20080;-58
2023/04/24 01:16:33;;;;;;;0.45;0.25;;;;;;;;;;5056737;28;20069;-57
2023/04/24 01:18:59;;;;;;;1.23;0.55;;;;;;;;;;5056104;28;20036;-57
2023/04/24 01:21:30;;;;;;;3.20;0.70;;;;;;;;;;5056263;28;20033;-58
2023/04/24 01:23:56;;;;;;;0.47;0.20;;;;;;;;;;5056069;28;20036;-57
2023/04/24 01:26:25;;;;;;;0.95;0.38;;;;;;;;;;5056612;28;20044;-58
2023/04/24 01:28:51;;;;;;;0.77;0.30;;;;;;;;;;5055886;28;20029;-57
2023/04/24 01:31:17;;;;;;;1.35;0.47;;;;;;;;;;5056196;28;20032;-57
2023/04/24 01:33:43;;;;;;;1.33;0.57;;;;;;;;;;5056267;28;20029;-58
2023/04/24 01:36:11;;;;;;;1.27;0.43;;;;;;;;;;5055614;28;20467;-57
2023/04/24 01:38:37;;;;;;;0.63;0.30;;;;;;;;;;5056047;28;20025;-58
2023/04/24 01:41:03;;;;;;;1.45;0.40;;;;;;;;;;5056252;28;20047;-58
2023/04/24 01:43:29;;;;;;;1.45;0.40;;;;;;;;;;5056117;28;20036;-58
2023/04/24 01:45:55;;;;;;;3.40;0.40;;;;;;;;;;5055955;28;20379;-58
2023/04/24 01:48:21;;;;;;;1.30;0.60;;;;;;;;;;5055173;28;20438;-57
2023/04/24 01:50:47;;;;;;;0.65;0.25;;;;;;;;;;5055559;28;20025;-58
2023/04/24 01:53:13;;;;;;;1.13;0.50;;;;;;;;;;5055802;28;20513;-58
2023/04/24 01:55:39;;;;;;;1.27;0.55;;;;;;;;;;5056089;28;20060;-58
2023/04/24 01:58:05;;;;;;;1.23;0.57;;;;;;;;;;5055435;28;20021;-58
2023/04/24 02:00:31;;;;;;;1.83;0.70;;;;;;;;;;5055368;28;20051;-58
2023/04/24 02:02:57;;;;;;;1.25;0.65;;;;;;;;;;5055145;28;20036;-58
2023/04/24 02:05:23;;;;;;;0.85;0.30;;;;;;;;;;5055270;28;20104;-58
2023/04/24 02:07:49;;;;;;;0.93;0.30;;;;;;;;;;5054907;28;20032;-58
2023/04/24 02:10:15;;;;;;;0.70;0.30;;;;;;;;;;5055130;28;20425;-58
2023/04/24 02:12:41;;;;;;;0.68;0.30;;;;;;;;;;5055180;28;20135;-58
2023/04/24 02:15:07;;;;;;;1.50;0.43;;;;;;;;;;5054330;28;20178;-58
2023/04/24 02:17:33;;;;;;;1.02;0.32;;;;;;;;;;5055022;28;20053;-57
2023/04/24 02:19:59;;;;;;;0.35;0.25;;;;;;;;;;5054986;28;20422;-58
2023/04/24 02:22:25;;;;;;;1.60;0.60;;;;;;;;;;5055022;28;20368;-58
2023/04/24 02:24:51;;;;;;;0.77;0.38;;;;;;;;;;5054867;28;20074;-58
2023/04/24 02:27:17;;;;;;;0.28;0.15;;;;;;;;;;5055174;28;20029;-58
2023/04/24 02:29:43;;;;;;;0.47;0.20;;;;;;;;;;5054819;28;20119;-58
2023/04/24 02:32:11;;;;;;;0.35;0.25;;;;;;;;;;5054756;28;20029;-58
2023/04/24 02:34:37;;;;;;;1.17;0.43;;;;;;;;;;5054653;28;20029;-58
2023/04/24 02:37:03;;;;;;;0.93;0.45;;;;;;;;;;5054882;28;20025;-58
2023/04/24 02:39:29;;;;;;;1.00;0.43;;;;;;;;;;5054897;28;20064;-58
2023/04/24 02:41:55;;;;;;;1.02;0.43;;;;;;;;;;5054474;28;20410;-58
2023/04/24 02:44:22;;;;;;;1.77;0.60;;;;;;;;;;5054703;28;20029;-58
2023/04/24 02:46:48;;;;;;;1.20;0.52;;;;;;;;;;5054996;28;20090;-58
2023/04/24 02:49:14;;;;;;;1.63;0.40;;;;;;;;;;5054698;28;20505;-58
2023/04/24 02:51:41;;;;;;;1.38;0.43;;;;;;;;;;5054362;28;20078;-58
2023/04/24 02:54:07;;;;;;;0.65;0.30;;;;;;;;;;5054367;28;20366;-58
2023/04/24 02:56:34;;;;;;;0.55;0.20;;;;;;;;;;5054878;28;20106;-58
2023/04/24 02:59:00;;;;;;;0.32;0.13;;;;;;;;;;5054217;28;20053;-57
2023/04/24 03:01:25;;;;;;;0.85;0.43;;;;;;;;;;5054698;28;20391;-58
2023/04/24 03:03:51;;;;;;;0.60;0.30;;;;;;;;;;5054409;28;20493;-58
2023/04/24 03:06:17;;;;;;;0.68;0.20;;;;;;;;;;5054713;28;20067;-58
2023/04/24 03:08:43;;;;;;;1.05;0.45;;;;;;;;;;5054138;28;20032;-58
2023/04/24 03:11:09;;;;;;;0.82;0.40;;;;;;;;;;5054595;28;20525;-58
2023/04/24 03:13:35;;;;;;;0.93;0.30;;;;;;;;;;5054041;28;20021;-58
2023/04/24 03:16:01;;;;;;;1.17;0.30;;;;;;;;;;5054956;28;20049;-57
2023/04/24 03:18:27;;;;;;;1.67;0.47;;;;;;;;;;5053953;28;20104;-58
2023/04/24 03:20:53;;;;;;;0.93;0.40;;;;;;;;;;5053898;28;20056;-58
2023/04/24 03:23:19;;;;;;;0.65;0.30;;;;;;;;;;5054107;28;20040;-58
2023/04/24 03:25:45;;;;;;;0.80;0.30;;;;;;;;;;5053539;28;20052;-58
2023/04/24 03:28:11;;;;;;;1.98;0.55;;;;;;;;;;5053415;28;20017;-58
2023/04/24 03:30:37;;;;;;;0.63;0.35;;;;;;;;;;5053740;28;20055;-58
2023/04/24 03:33:03;;;;;;;0.95;0.30;;;;;;;;;;5053762;28;20052;-58
2023/04/24 03:35:29;;;;;;;2.13;0.20;;;;;;;;;;5052293;28;20029;-58
2023/04/24 03:37:55;;;;;;;1.35;0.63;;;;;;;;;;5053708;28;20029;-58
2023/04/24 03:40:21;;;;;;;2.05;0.77;;;;;;;;;;5054044;28;20469;-59
2023/04/24 03:42:47;;;;;;;0.80;0.40;;;;;;;;;;5053656;28;20435;-59
2023/04/24 03:45:13;;;;;;;0.30;0.17;;;;;;;;;;5053794;28;20025;-59
2023/04/24 03:47:39;;;;;;;1.05;0.50;;;;;;;;;;5053608;28;20104;-59
2023/04/24 03:50:05;;;;;;;2.15;0.50;;;;;;;;;;5053940;28;20037;-59
2023/04/24 03:52:31;;;;;;;0.82;0.40;;;;;;;;;;5053681;28;20055;-59
2023/04/24 03:54:57;;;;;;;1.60;1.17;;;;;;;;;;5054163;28;20029;-59
2023/04/24 03:57:23;;;;;;;1.65;0.40;;;;;;;;;;5053882;28;20029;-59
2023/04/24 03:59:49;;;;;;;1.00;0.40;;;;;;;;;;5053567;28;20025;-59
2023/04/24 04:02:15;;;;;;;0.60;0.32;;;;;;;;;;5053404;28;20069;-59
2023/04/24 04:04:41;;;;;;;1.83;0.40;;;;;;;;;;5054358;28;20325;-59
2023/04/24 04:07:07;;;;;;;1.15;0.40;;;;;;;;;;5053845;28;20459;-59
2023/04/24 04:09:33;;;;;;;0.82;0.30;;;;;;;;;;5053441;28;20032;-59
2023/04/24 04:12:00;;;;;;;1.00;0.40;;;;;;;;;;5054223;28;20025;-59
2023/04/24 04:14:26;;;;;;;0.80;0.38;;;;;;;;;;5053436;28;20387;-59
2023/04/24 04:16:52;;;;;;;1.65;0.40;;;;;;;;;;5053911;28;20036;-59
2023/04/24 04:19:18;;;;;;;0.60;0.30;;;;;;;;;;5053535;28;20025;-59
2023/04/24 04:21:45;;;;;;;1.23;0.30;;;;;;;;;;5053379;28;20037;-58
2023/04/24 04:24:11;;;;;;;0.85;0.32;;;;;;;;;;5053802;28;20032;-58
2023/04/24 04:26:37;;;;;;;1.38;0.45;;;;;;;;;;5053591;28;20447;-58
2023/04/24 04:29:03;;;;;;;1.73;0.60;;;;;;;;;;5053732;28;20032;-58
2023/04/24 04:31:30;;;;;;;0.98;0.35;;;;;;;;;;5053557;28;20423;-58
2023/04/24 04:33:56;;;;;;;1.90;0.43;;;;;;;;;;5053195;28;20025;-58
2023/04/24 04:36:23;;;;;;;2.83;0.43;;;;;;;;;;5053582;28;20030;-58
2023/04/24 04:38:49;;;;;;;1.00;0.30;;;;;;;;;;5056367;28;20025;-58
2023/04/24 04:41:16;;;;;;;2.22;0.50;;;;;;;;;;5056894;28;20434;-58
2023/04/24 04:43:42;;;;;;;1.15;0.73;;;;;;;;;;5056769;28;20067;-58
2023/04/24 04:46:10;;;;;;;2.03;0.70;;;;;;;;;;5057288;28;20462;-58
2023/04/24 04:48:36;;;;;;;1.52;0.82;;;;;;;;;;5056704;28;20025;-58
2023/04/24 04:51:02;;;;;;;2.40;0.88;;;;;;;;;;5055525;28;20402;-58
2023/04/24 04:53:28;;;;;;;2.97;1.20;;;;;;;;;;5056992;28;20100;-58
2023/04/24 04:55:54;;;;;;;0.80;0.50;;;;;;;;;;5057018;28;20033;-58
2023/04/24 04:58:21;;;;;;;3.05;1.08;;;;;;;;;;5056600;28;20029;-58
2023/04/24 05:00:47;;;;;;;1.77;0.82;;;;;;;;;;5056406;28;20114;-58
2023/04/24 05:03:13;;;;;;;1.20;0.68;;;;;;;;;;5056284;28;20079;-58
2023/04/24 05:05:40;;;;;;;4.20;1.00;;;;;;;;;;5057013;28;20029;-58
2023/04/24 05:08:07;;;;;;;1.15;0.70;;;;;;;;;;5056196;28;20037;-58
2023/04/24 05:10:33;;;;;;;1.55;0.77;;;;;;;;;;5056492;28;20021;-58
2023/04/24 05:12:59;;;;;;;4.55;1.23;;;;;;;;;;5056303;28;20037;-58
2023/04/24 05:15:25;;;;;;;2.67;1.40;;;;;;;;;;5056287;28;20451;-58
2023/04/24 05:17:50;;;;;;;1.70;0.98;;;;;;;;;;5056781;28;20028;-58
2023/04/24 05:20:17;;;;;;;1.58;0.88;;;;;;;;;;5056093;28;20096;-58
2023/04/24 05:22:43;;;;;;;1.90;1.00;;;;;;;;;;5055916;28;20037;-58
2023/04/24 05:25:09;;;;;;;1.70;0.90;;;;;;;;;;5055822;28;20074;-59
2023/04/24 05:27:35;;;;;;;0.95;0.52;;;;;;;;;;5056583;28;20029;-58
2023/04/24 05:30:01;;;;;;;1.92;0.98;;;;;;;;;;5055925;28;20032;-59
2023/04/24 05:32:27;;;;;;;1.40;0.60;;;;;;;;;;5056236;28;20029;-58
2023/04/24 05:34:53;;;;;;;1.63;0.88;;;;;;;;;;5055955;28;20086;-58
2023/04/24 05:37:19;;;;;;;1.77;1.08;;;;;;;;;;5056423;28;20027;-58
2023/04/24 05:39:45;;;;;;;3.42;1.17;;;;;;;;;;5055771;28;20086;-58
2023/04/24 05:42:11;;;;;;;2.55;1.17;;;;;;;;;;5055684;28;20033;-58
2023/04/24 05:44:37;;;;;;;1.58;1.08;;;;;;;;;;5055686;28;20068;-59
2023/04/24 05:47:03;;;;;;;2.58;1.30;;;;;;;;;;5056000;28;20021;-58
2023/04/24 05:49:29;;;;;;;1.98;1.13;;;;;;;;;;5054904;28;20029;-58
2023/04/24 05:51:55;;;;;;;1.63;0.93;;;;;;;;;;5055592;28;20036;-58
2023/04/24 05:54:21;;;;;;;1.80;0.90;;;;;;;;;;5055506;28;20060;-58
2023/04/24 05:56:47;;;;;;;2.00;0.95;;;;;;;;;;5055867;28;20029;-58
2023/04/24 05:59:13;;;;;;;2.35;0.90;;;;;;;;;;5055364;28;20052;-58
2023/04/24 06:01:39;;;;;;;1.80;1.15;;;;;;;;;;5056094;28;20352;-58
2023/04/24 06:04:05;;;;;;;2.70;1.27;;;;;;;;;;5055601;28;20029;-58
2023/04/24 06:06:32;;;;;;;3.22;1.27;;;;;;;;;;5055799;28;20027;-58
2023/04/24 06:08:58;;;;;;;1.77;1.10;;;;;;;;;;5055151;28;20029;-58
2023/04/24 06:11:24;;;;;;;1.63;0.90;;;;;;;;;;5055222;28;20029;-58
2023/04/24 06:13:51;;;;;;;1.85;0.93;;;;;;;;;;5055295;28;20056;-58
2023/04/24 06:16:17;;;;;;;2.47;1.27;;;;;;;;;;5055537;28;20403;-58
2023/04/24 06:18:43;;;;;;;1.70;1.00;;;;;;;;;;5055480;28;20083;-58
2023/04/24 06:21:09;;;;;;;2.15;1.23;;;;;;;;;;5055011;28;20036;-58
2023/04/24 06:23:36;;;;;;;2.95;1.48;;;;;;;;;;5054882;28;20037;-58
2023/04/24 06:26:01;;;;;;;2.50;1.25;;;;;;;;;;5055233;28;20068;-58
2023/04/24 06:28:27;;;;;;;2.50;1.25;;;;;;;;;;5055415;28;20056;-58
2023/04/24 06:30:53;;;;;;;2.30;1.13;;;;;;;;;;5054912;28;20116;-58
2023/04/24 06:33:19;;;;;;;1.40;0.80;;;;;;;;;;5055382;28;20036;-58
2023/04/24 06:35:45;;;;;;;1.20;0.75;;;;;;;;;;5055092;28;20036;-58
2023/04/24 06:38:11;;;;;;;1.38;0.70;;;;;;;;;;5054405;28;20025;-58
2023/04/24 06:40:37;;;;;;;1.50;1.00;;;;;;;;;;5054658;28;20028;-58
2023/04/24 06:43:03;;;;;;;2.92;1.20;;;;;;;;;;5054570;28;20040;-58
2023/04/24 06:45:29;;;;;;;2.05;0.95;;;;;;;;;;5054515;28;20029;-58
2023/04/24 06:47:56;;;;;;;2.00;0.80;;;;;;;;;;5054595;28;20051;-58
2023/04/24 06:50:22;;;;;;;2.22;1.10;;;;;;;;;;5054284;28;20036;-58
2023/04/24 06:52:48;;;;;;;1.70;1.00;;;;;;;;;;5054933;28;20423;-57
2023/04/24 06:55:16;;;;;;;1.58;0.90;;;;;;;;;;5054868;28;20057;-58
2023/04/24 06:57:42;;;;;;;1.58;0.70;;;;;;;;;;5054383;28;20029;-58
2023/04/24 07:00:09;;;;;;;1.45;0.80;;;;;;;;;;5054236;28;20025;-58
2023/04/24 07:02:35;;;;;;;1.20;0.70;;;;;;;;;;5054164;28;20041;-58
2023/04/24 07:05:01;;;;;;;1.52;1.00;;;;;;;;;;5054576;28;20025;-58
2023/04/24 07:07:27;;;;;;;1.40;0.88;;;;;;;;;;5054436;28;20021;-58
2023/04/24 07:09:54;;;;;;;1.70;1.10;;;;;;;;;;5054034;28;20032;-58
2023/04/24 07:12:21;;;;;;;1.85;0.73;;;;;;;;;;5054116;28;20032;-58
2023/04/24 07:14:47;;;;;;;1.85;1.15;;;;;;;;;;5054200;28;20391;-58
2023/04/24 07:17:14;;;;;;;1.20;0.65;;;;;;;;;;5054456;28;20029;-58
2023/04/24 07:19:40;;;;;;;2.20;1.23;;;;;;;;;;5053929;28;20025;-57
2023/04/24 07:22:06;;;;;;;2.97;1.20;;;;;;;;;;5054200;28;20033;-58
2023/04/24 07:24:32;;;;;;;1.73;0.90;;;;;;;;;;5053865;28;20055;-58
2023/04/24 07:26:59;;;;;;;2.40;1.33;;;;;;;;;;5054698;28;20371;-57
2023/04/24 07:29:25;;;;;;;1.65;0.93;;;;;;;;;;5054332;28;20061;-58
2023/04/24 07:31:51;;;;;;;1.70;0.88;;;;;;;;;;5054095;28;20063;-58
2023/04/24 07:34:17;;;;;;;1.77;1.02;;;;;;;;;;5053808;28;20029;-58
2023/04/24 07:36:43;;;;;;;2.22;0.80;;;;;;;;;;5053784;28;20474;-58
2023/04/24 07:39:09;;;;;;;1.30;0.70;;;;;;;;;;5053611;28;20048;-59
2023/04/24 07:41:35;;;;;;;3.50;0.88;;;;;;;;;;5053902;28;20029;-57
2023/04/24 07:44:01;;;;;;;1.73;0.90;;;;;;;;;;5054127;28;20439;-57
2023/04/24 07:46:29;;;;;;;2.08;1.08;;;;;;;;;;5054243;28;20435;-58
2023/04/24 07:48:56;;;;;;;2.50;0.88;;;;;;;;;;5053645;28;20086;-57
2023/04/24 07:51:22;;;;;;;1.48;0.90;;;;;;;;;;5053837;28;20538;-58
2023/04/24 07:53:48;;;;;;;1.33;0.70;;;;;;;;;;5053909;28;20151;-57
2023/04/24 07:56:13;;;;;;;1.90;0.60;;;;;;;;;;5053934;28;20078;-57
2023/04/24 07:58:39;;;;;;;2.17;1.08;;;;;;;;;;5053778;28;20025;-57
2023/04/24 08:01:05;;;;;;;2.60;1.10;;;;;;;;;;5053255;28;20459;-57
2023/04/24 08:03:31;;;;;;;3.75;0.85;;;;;;;;;;5053451;28;20040;-58
2023/04/24 08:05:57;;;;;;;1.38;0.70;;;;;;;;;;5053575;28;20079;-58
2023/04/24 08:08:24;;;;;;;1.38;0.60;;;;;;;;;;5053495;28;20029;-58
2023/04/24 08:10:50;;;;;;;1.92;0.82;;;;;;;;;;5053939;28;20390;-59
2023/04/24 08:13:16;;;;;;;1.42;0.70;;;;;;;;;;5055730;28;20031;-56
2023/04/24 08:15:42;;;;;;;1.45;0.68;;;;;;;;;;5057796;28;20089;-57
2023/04/24 08:18:08;;;;;;;1.55;0.75;;;;;;;;;;5057325;28;20028;-56
2023/04/24 08:20:35;;;;;;;1.05;0.50;;;;;;;;;;5057404;28;20037;-58
2023/04/24 08:23:01;;;;;;;1.98;1.05;;;;;;;;;;5057146;28;20071;-57
2023/04/24 08:25:27;;;;;;;1.67;0.88;;;;;;;;;;5057559;28;20052;-58
2023/04/24 08:27:53;;;;;;;1.95;1.10;;;;;;;;;;5057628;28;20025;-58
2023/04/24 08:30:19;;;;;;;1.23;0.70;;;;;;;;;;5056850;28;20095;-60
2023/04/24 08:32:45;;;;;;;1.55;0.80;;;;;;;;;;5056987;28;20036;-56
2023/04/24 08:35:11;;;;;;;2.63;0.85;;;;;;;;;;5057129;28;20379;-56
2023/04/24 08:37:37;;;;;;;1.45;0.80;;;;;;;;;;5057021;28;20029;-58
2023/04/24 08:40:30;;;;;;;1.80;0.95;;;;;;;;;;5057072;28;20091;-58
2023/04/24 08:42:56;;;;;;;2.10;0.70;;;;;;;;;;5055387;28;20502;-60
2023/04/24 08:45:23;;;;;;;1.27;0.73;;;;;;;;;;5056567;28;20522;-58
2023/04/24 08:47:50;;;;;;;1.45;0.60;;;;;;;;;;5057181;28;20049;-59
2023/04/24 08:50:16;;;;;;;1.30;0.70;;;;;;;;;;5056538;28;20021;-57
2023/04/24 08:52:42;;;;;;;1.33;0.90;;;;;;;;;;5056700;28;20063;-59
2023/04/24 08:55:08;;;;;;;1.83;0.90;;;;;;;;;;5056485;28;20096;-58
2023/04/24 08:57:35;;;;;;;2.88;0.65;;;;;;;;;;5057018;28;20078;-58
2023/04/24 09:00:03;;;;;;;1.52;1.00;;;;;;;;;;5056592;28;20116;-58
2023/04/24 09:02:29;;;;;;;1.48;0.75;;;;;;;;;;5056493;28;20025;-59
2023/04/24 09:04:56;;;;;;;1.25;0.65;;;;;;;;;;5056507;28;20025;-57
2023/04/24 09:07:25;;;;;;;2.25;0.65;;;;;;;;;;5057101;28;20087;-59
2023/04/24 09:09:52;;;;;;;1.60;0.90;;;;;;;;;;5056383;28;20116;-57
2023/04/24 09:12:18;;;;;;;2.42;0.95;;;;;;;;;;5056666;28;20029;-58
2023/04/24 09:14:45;;;;;;;1.27;0.60;;;;;;;;;;5056820;28;20045;-59
2023/04/24 09:17:11;;;;;;;1.20;0.65;;;;;;;;;;5056283;28;20021;-58
2023/04/24 09:19:37;;;;;;;2.20;1.00;;;;;;;;;;5056519;28;20123;-59
2023/04/24 09:22:06;;;;;;;1.80;0.75;;;;;;;;;;5056732;28;20029;-58
2023/04/24 09:24:35;;;;;;;1.52;0.73;;;;;;;;;;5055014;28;20029;-58
2023/04/24 09:27:01;;;;;;;1.60;0.77;;;;;;;;;;5056359;28;20021;-58
2023/04/24 09:29:27;;;;;;;1.45;0.80;;;;;;;;;;5056019;28;20032;-60
2023/04/24 09:31:54;;;;;;;2.83;1.13;;;;;;;;;;5056015;28;20033;-57
2023/04/24 09:34:23;;;;;;;2.45;1.10;;;;;;;;;;5056720;28;20354;-57
2023/04/24 09:36:50;;;;;;;1.23;0.80;;;;;;;;;;5056778;28;20431;-58
2023/04/24 09:39:16;;;;;;;1.58;0.77;;;;;;;;;;5056141;28;20096;-57
2023/04/24 09:41:52;;;;;;;1.38;0.63;;;;;;;;;;5055781;28;20033;-59
2023/04/24 09:44:22;;;;;;;1.40;0.75;;;;;;;;;;5055455;28;20029;-59
2023/04/24 09:46:58;;;;;;;3.70;0.70;;;;;;;;;;5055796;28;20033;-58
2023/04/24 09:49:27;;;;;;;1.55;0.63;;;;;;;;;;5055688;28;20029;-58
2023/04/24 09:52:07;;;;;;;1.35;0.50;;;;;;;;;;5055894;28;20032;-58
2023/04/24 09:54:33;;;;;;;1.30;0.70;;;;;;;;;;5055299;28;20025;-58
2023/04/24 09:57:00;;;;;;;1.10;0.60;;;;;;;;;;5055904;28;20079;-58
2023/04/24 09:59:26;;;;;;;0.80;0.30;;;;;;;;;;5055432;28;20143;-58
2023/04/24 10:01:52;;;;;;;1.38;0.50;;;;;;;;;;5055552;28;20068;-58
2023/04/24 10:04:25;;;;;;;1.27;0.70;;;;;;;;;;5055832;28;20407;-57
2023/04/24 10:06:52;;;;;;;1.00;0.57;;;;;;;;;;5056183;28;20029;-57
2023/04/24 10:09:18;;;;;;;2.67;0.70;;;;;;;;;;5055974;28;20112;-57
2023/04/24 10:11:45;;;;;;;1.00;0.60;;;;;;;;;;5055524;28;20024;-58
2023/04/24 10:14:12;;;;;;;0.82;0.32;;;;;;;;;;5055093;28;20064;-57
2023/04/24 10:16:40;;;;;;;1.02;0.50;;;;;;;;;;5055559;28;20081;-56
2023/04/24 10:19:06;;;;;;;6.53;0.75;;;;;;;;;;5055136;28;20028;-58
2023/04/24 10:21:33;;;;;;;1.35;0.55;;;;;;;;;;5055356;28;20052;-58
2023/04/24 10:24:00;;;;;;;1.38;0.68;;;;;;;;;;5054726;28;20025;-58
2023/04/24 10:26:26;;;;;;;3.53;0.93;;;;;;;;;;5055329;28;20081;-54
2023/04/24 10:28:53;;;;;;;1.30;0.50;;;;;;;;;;5054994;28;20068;-58
2023/04/24 10:31:19;;;;;;;1.05;0.50;;;;;;;;;;5054839;28;20036;-58
2023/04/24 10:33:46;;;;;;;1.38;0.68;;;;;;;;;;5055072;28;20167;-58
2023/04/24 10:36:13;;;;;;;1.00;0.52;;;;;;;;;;5054828;28;20036;-56
2023/04/24 10:38:41;;;;;;;1.00;0.40;;;;;;;;;;5055130;28;20032;-58
2023/04/24 10:41:09;;;;;;;1.42;0.45;;;;;;;;;;5054666;28;20175;-58
2023/04/24 10:43:35;;;;;;;1.55;0.80;;;;;;;;;;5055069;28;20044;-58
2023/04/24 10:46:02;;;;;;;1.17;0.60;;;;;;;;;;5054615;28;20112;-58
2023/04/24 10:48:28;;;;;;;1.63;0.73;;;;;;;;;;5054576;28;20033;-58
2023/04/24 10:50:55;;;;;;;1.27;0.52;;;;;;;;;;5054524;28;20367;-58
2023/04/24 10:53:26;;;;;;;2.38;0.88;;;;;;;;;;5054402;28;20086;-58
2023/04/24 10:56:13;;;;;;;0.52;0.32;;;;;;;;;;5055312;28;20112;-58
2023/04/24 10:58:43;;;;;;;1.02;0.47;;;;;;;;;;5053995;28;20037;-58
2023/04/24 11:01:09;;;;;;;0.90;0.60;;;;;;;;;;5054359;28;20079;-58
2023/04/24 11:03:36;;;;;;;1.42;0.60;;;;;;;;;;5054234;28;20033;-58
2023/04/24 11:06:02;;;;;;;0.98;0.50;;;;;;;;;;5054832;28;20029;-58
2023/04/24 11:08:32;;;;;;;0.65;0.40;;;;;;;;;;5054224;28;20021;-58
2023/04/24 11:11:09;;;;;;;1.25;0.55;;;;;;;;;;5054845;28;20068;-58
2023/04/24 11:13:54;;;;;;;0.90;0.50;;;;;;;;;;5054902;28;20032;-57
2023/04/24 11:16:21;;;;;;;1.05;0.52;;;;;;;;;;5054458;28;20045;-58
2023/04/24 11:18:52;;;;;;;1.20;0.45;;;;;;;;;;5054588;28;20071;-58
2023/04/24 11:21:19;;;;;;;1.30;0.60;;;;;;;;;;5054879;28;20025;-57
2023/04/24 11:23:46;;;;;;;1.30;0.52;;;;;;;;;;5053237;28;20044;-58
2023/04/24 11:26:18;;;;;;;1.60;0.63;;;;;;;;;;5054805;28;20040;-58
2023/04/24 11:28:50;;;;;;;1.33;0.80;;;;;;;;;;5054424;28;20029;-58
2023/04/24 11:31:49;;;;;;;1.67;0.55;;;;;;;;;;5053882;28;20025;-58
2023/04/24 11:34:16;;;;;;;1.33;0.60;;;;;;;;;;5049735;28;20045;-58
2023/04/24 11:36:46;;;;;;;1.00;0.68;;;;;;;;;;5053917;28;20482;-57
2023/04/24 11:39:13;;;;;;;3.97;1.08;;;;;;;;;;5053746;28;20021;-58
2023/04/24 11:41:39;;;;;;;1.00;0.50;;;;;;;;;;5053746;28;20049;-58
2023/04/24 11:44:06;;;;;;;1.33;0.60;;;;;;;;;;5054115;28;20025;-58
2023/04/24 11:46:32;;;;;;;1.30;0.70;;;;;;;;;;5054157;28;20115;-58
2023/04/24 11:48:59;;;;;;;1.02;0.57;;;;;;;;;;5053011;28;20021;-58
2023/04/24 11:51:26;;;;;;;1.60;0.60;;;;;;;;;;5054167;28;20106;-58
2023/04/24 11:53:52;;;;;;;1.30;0.77;;;;;;;;;;5053561;28;20112;-58
2023/04/24 11:56:19;;;;;;;1.52;0.77;;;;;;;;;;5053842;28;20477;-57
2023/04/24 11:58:46;;;;;;;1.95;1.10;;;;;;;;;;5053420;28;20028;-58
2023/04/24 12:01:12;;;;;;;1.73;0.88;;;;;;;;;;5053475;28;20348;-58
2023/04/24 12:03:38;;;;;;;1.30;0.80;;;;;;;;;;5053460;28;20040;-58
2023/04/24 12:06:07;;;;;;;2.10;1.10;;;;;;;;;;5053549;28;20023;-58
2023/04/24 12:08:34;;;;;;;2.13;1.05;;;;;;;;;;5053971;28;20446;-59
2023/04/24 12:11:04;;;;;;;2.13;1.00;;;;;;;;;;5053428;28;20057;-59
2023/04/24 12:13:30;;;;;;;1.02;0.60;;;;;;;;;;5053660;28;20037;-57
2023/04/24 12:16:00;;;;;;;1.10;0.57;;;;;;;;;;5053274;28;20049;-56
2023/04/24 12:18:26;;;;;;;1.00;0.60;;;;;;;;;;5053121;28;20021;-56
2023/04/24 12:20:52;;;;;;;1.25;0.60;;;;;;;;;;5053336;28;20048;-56
2023/04/24 12:23:34;;;;;;;0.90;0.60;;;;;;;;;;5053314;28;20083;-59
2023/04/24 12:26:01;;;;;;;1.80;0.60;;;;;;;;;;5054146;28;20103;-56
2023/04/24 12:28:35;;;;;;;1.33;0.65;;;;;;;;;;5053301;28;20029;-56
2023/04/24 12:31:01;;;;;;;1.27;0.60;;;;;;;;;;5053253;28;20482;-55
2023/04/24 12:33:27;;;;;;;1.20;0.68;;;;;;;;;;5053236;28;20464;-56
2023/04/24 12:35:53;;;;;;;1.50;0.82;;;;;;;;;;5052956;28;20412;-56
2023/04/24 12:38:22;;;;;;;1.23;0.60;;;;;;;;;;5053153;28;20036;-56
2023/04/24 12:40:48;;;;;;;2.03;0.82;;;;;;;;;;5053146;28;20116;-56
2023/04/24 12:43:18;;;;;;;3.72;1.17;;;;;;;;;;5052939;28;20183;-57
2023/04/24 12:45:47;;;;;;;1.17;0.57;;;;;;;;;;5053234;28;20029;-57
2023/04/24 12:48:16;;;;;;;0.63;0.30;;;;;;;;;;5053160;28;20106;-57
2023/04/24 12:50:43;;;;;;;5.00;0.77;;;;;;;;;;5053055;28;20028;-57
2023/04/24 12:53:09;;;;;;;1.10;0.63;;;;;;;;;;5053353;28;20025;-57
2023/04/24 12:55:35;;;;;;;2.17;0.95;;;;;;;;;;5053844;28;20333;-56
2023/04/24 12:58:02;;;;;;;1.08;0.60;;;;;;;;;;5052999;28;20029;-57
2023/04/24 13:00:28;;;;;;;1.23;0.60;;;;;;;;;;5056258;28;20029;-57
2023/04/24 13:02:54;;;;;;;1.48;0.60;;;;;;;;;;5055938;28;20368;-55
2023/04/24 13:05:20;;;;;;;0.98;0.63;;;;;;;;;;5056618;28;20375;-57
2023/04/24 13:07:46;;;;;;;1.63;0.90;;;;;;;;;;5056636;28;20021;-57
2023/04/24 13:10:13;;;;;;;1.13;0.60;;;;;;;;;;5057026;28;20429;-57
2023/04/24 13:12:40;;;;;;;0.93;0.40;;;;;;;;;;5056618;28;20029;-58
2023/04/24 13:15:06;;;;;;;1.60;0.70;;;;;;;;;;5056266;28;20076;-57
2023/04/24 13:17:32;;;;;;;1.38;0.63;;;;;;;;;;5055993;28;20025;-57
2023/04/24 13:19:59;;;;;;;1.73;0.95;;;;;;;;;;5056128;28;20036;-57
2023/04/24 13:22:25;;;;;;;1.98;0.82;;;;;;;;;;5056131;28;20438;-57
2023/04/24 13:24:51;;;;;;;0.90;0.60;;;;;;;;;;5056478;28;20052;-57
2023/04/24 13:27:17;;;;;;;1.27;0.70;;;;;;;;;;5056449;28;20032;-57
2023/04/24 13:29:43;;;;;;;1.60;0.77;;;;;;;;;;5056917;28;20025;-57
2023/04/24 13:32:10;;;;;;;2.13;0.50;;;;;;;;;;5056526;28;20359;-57
2023/04/24 13:34:36;;;;;;;1.38;0.60;;;;;;;;;;5056315;28;20405;-57
2023/04/24 13:37:03;;;;;;;1.52;0.82;;;;;;;;;;5056415;28;20021;-57
2023/04/24 13:39:29;;;;;;;1.67;0.75;;;;;;;;;;5055592;28;20029;-57
2023/04/24 13:41:55;;;;;;;0.88;0.52;;;;;;;;;;5055773;28;20033;-57
2023/04/24 13:44:22;;;;;;;1.27;0.70;;;;;;;;;;5055947;28;20029;-57
2023/04/24 13:46:49;;;;;;;1.48;0.90;;;;;;;;;;5056334;28;20028;-57
2023/04/24 13:49:15;;;;;;;1.42;0.80;;;;;;;;;;5055406;28;20459;-57
2023/04/24 13:51:41;;;;;;;1.10;0.60;;;;;;;;;;5055678;28;20083;-57
2023/04/24 13:54:07;;;;;;;2.03;1.17;;;;;;;;;;5055650;28;20021;-57
2023/04/24 13:56:33;;;;;;;1.48;0.80;;;;;;;;;;5055801;28;20116;-56
2023/04/24 13:59:00;;;;;;;1.45;0.70;;;;;;;;;;5055582;28;20021;-56
2023/04/24 14:01:26;;;;;;;1.98;0.80;;;;;;;;;;5055953;28;20029;-57
2023/04/24 14:03:52;;;;;;;1.30;0.68;;;;;;;;;;5055302;28;20378;-57
2023/04/24 14:06:19;;;;;;;1.73;1.00;;;;;;;;;;5055761;28;20047;-57
2023/04/24 14:08:45;;;;;;;1.17;0.80;;;;;;;;;;5056158;28;20052;-57
2023/04/24 14:11:11;;;;;;;1.75;0.88;;;;;;;;;;5054729;28;20021;-56
2023/04/24 14:13:37;;;;;;;1.80;0.95;;;;;;;;;;5055396;28;20367;-57
2023/04/24 14:16:03;;;;;;;1.48;0.70;;;;;;;;;;5056188;28;20425;-57
2023/04/24 14:18:30;;;;;;;1.88;0.98;;;;;;;;;;5055145;28;20035;-57
2023/04/24 14:20:55;;;;;;;1.67;1.02;;;;;;;;;;5055101;28;20349;-56
2023/04/24 14:23:21;;;;;;;2.47;1.38;;;;;;;;;;5055087;28;20039;-57
2023/04/24 14:25:50;;;;;;;1.75;0.82;;;;;;;;;;5055724;28;20061;-57
2023/04/24 14:28:18;;;;;;;1.92;0.90;;;;;;;;;;5055502;28;20055;-57
2023/04/24 14:30:44;;;;;;;1.10;0.68;;;;;;;;;;5055129;28;20110;-57
2023/04/24 14:33:11;;;;;;;1.95;0.95;;;;;;;;;;5054807;28;20025;-57
2023/04/24 14:35:37;;;;;;;1.88;0.85;;;;;;;;;;5054804;28;20083;-57
2023/04/24 14:38:03;;;;;;;1.50;0.80;;;;;;;;;;5055272;28;20087;-57
2023/04/24 14:40:31;;;;;;;1.52;0.80;;;;;;;;;;5054757;28;20029;-57